Time;durP1;ratioP1;P1;durP2;ratioP2;P2;SDS_P1;SDS_P2;PMS_P1;PMS_P2;Temp;Humidity;BMP_temperature;BMP_pressure;BME280_temperature;BME280_humidity;BME280_pressure;Samples;Min_cycle;Max_cycle;Signal;HPM_P1;HPM_P2
2021/05/08 00:00:25;;;;;;;8.73;1.92;;;10.40;69.60;;;;;;5073627;28;20078;-59
2021/05/08 00:02:51;;;;;;;10.57;3.60;;;10.40;69.60;;;;;;5072533;28;20071;-60
2021/05/08 00:05:17;;;;;;;5.60;2.10;;;10.30;69.60;;;;;;5073685;28;20024;-59
2021/05/08 00:07:45;;;;;;;10.98;2.40;;;10.30;69.70;;;;;;5073531;28;20033;-60
2021/05/08 00:10:16;;;;;;;6.10;2.38;;;10.30;69.80;;;;;;5072228;28;20040;-59
2021/05/08 00:12:43;;;;;;;4.40;2.00;;;10.30;69.80;;;;;;5073015;28;20039;-59
2021/05/08 00:15:11;;;;;;;7.72;1.98;;;10.30;69.80;;;;;;5073254;28;20036;-59
2021/05/08 00:17:38;;;;;;;7.35;1.88;;;10.20;69.90;;;;;;5072589;28;20036;-60
2021/05/08 00:20:11;;;;;;;8.40;2.30;;;10.20;69.80;;;;;;5073223;28;20499;-59
2021/05/08 00:22:37;;;;;;;9.90;2.55;;;10.20;69.80;;;;;;5073474;28;20028;-59
2021/05/08 00:25:06;;;;;;;9.60;3.80;;;10.10;69.80;;;;;;5072356;28;20044;-60
2021/05/08 00:27:31;;;;;;;4.47;2.35;;;10.10;69.90;;;;;;5072962;28;20471;-59
2021/05/08 00:29:57;;;;;;;9.65;2.70;;;10.10;69.90;;;;;;5072741;28;20036;-59
2021/05/08 00:32:23;;;;;;;5.32;2.00;;;10.10;69.90;;;;;;5072456;28;20031;-59
2021/05/08 00:34:48;;;;;;;5.57;1.80;;;10.10;70.00;;;;;;5072751;28;20434;-59
2021/05/08 00:37:14;;;;;;;4.95;2.00;;;10.00;69.90;;;;;;5070866;28;20052;-59
2021/05/08 00:39:40;;;;;;;10.50;2.50;;;10.00;70.00;;;;;;5072204;28;20032;-59
2021/05/08 00:42:06;;;;;;;6.22;2.58;;;10.00;70.00;;;;;;5072742;28;20486;-59
2021/05/08 00:44:32;;;;;;;5.78;2.17;;;9.90;70.10;;;;;;5072778;28;20032;-59
2021/05/08 00:46:58;;;;;;;6.60;2.60;;;9.90;70.10;;;;;;5072195;28;20024;-60
2021/05/08 00:49:27;;;;;;;4.50;2.38;;;9.90;70.10;;;;;;5072985;28;20028;-60
2021/05/08 00:51:53;;;;;;;11.25;2.67;;;9.90;70.10;;;;;;5070534;28;20048;-59
2021/05/08 00:54:19;;;;;;;5.28;2.28;;;9.90;70.10;;;;;;5072565;28;20044;-60
2021/05/08 00:56:45;;;;;;;9.90;2.70;;;9.90;70.20;;;;;;5071533;28;20029;-59
2021/05/08 00:59:12;;;;;;;4.50;2.50;;;9.90;70.20;;;;;;5071727;28;20519;-60
2021/05/08 01:01:40;;;;;;;5.72;2.10;;;9.90;70.20;;;;;;5072912;28;20032;-60
2021/05/08 01:04:06;;;;;;;3.83;2.33;;;9.80;70.20;;;;;;5071270;28;20059;-59
2021/05/08 01:06:33;;;;;;;10.38;2.60;;;9.80;70.20;;;;;;5071719;28;20483;-60
2021/05/08 01:09:00;;;;;;;5.53;2.70;;;9.80;70.20;;;;;;5072674;28;20154;-60
2021/05/08 01:11:27;;;;;;;5.47;2.67;;;9.70;70.20;;;;;;5072269;28;20032;-60
2021/05/08 01:13:53;;;;;;;6.43;2.25;;;9.80;70.30;;;;;;5070531;28;20097;-59
2021/05/08 01:16:19;;;;;;;5.35;2.33;;;9.80;70.30;;;;;;5072599;28;20103;-60
2021/05/08 01:18:51;;;;;;;6.13;2.38;;;9.80;70.30;;;;;;5072555;28;20036;-59
2021/05/08 01:21:19;;;;;;;7.57;2.08;;;9.70;70.30;;;;;;5070376;28;20024;-60
2021/05/08 01:23:47;;;;;;;5.97;2.60;;;9.70;70.30;;;;;;5072590;28;20054;-59
2021/05/08 01:26:14;;;;;;;6.47;2.70;;;9.70;70.40;;;;;;5070939;28;20556;-59
2021/05/08 01:28:40;;;;;;;10.05;2.55;;;9.70;70.40;;;;;;5070533;28;20056;-59
2021/05/08 01:31:11;;;;;;;4.68;2.35;;;9.60;70.40;;;;;;5071093;28;20039;-59
2021/05/08 01:33:37;;;;;;;4.53;2.22;;;9.60;70.50;;;;;;5072307;28;20033;-60
2021/05/08 01:36:03;;;;;;;4.95;1.95;;;9.60;70.50;;;;;;5071759;28;20028;-60
2021/05/08 01:38:32;;;;;;;8.60;2.90;;;9.60;70.50;;;;;;5070983;28;20029;-59
2021/05/08 01:41:00;;;;;;;6.68;2.63;;;9.50;70.50;;;;;;5072595;28;20094;-59
2021/05/08 01:43:27;;;;;;;6.82;2.65;;;9.50;70.50;;;;;;5071613;28;20056;-59
2021/05/08 01:45:54;;;;;;;4.65;2.20;;;9.50;70.50;;;;;;5072301;28;20028;-60
2021/05/08 01:48:21;;;;;;;9.95;3.33;;;9.50;70.50;;;;;;5072434;28;20373;-59
2021/05/08 01:50:48;;;;;;;5.43;2.47;;;9.50;70.40;;;;;;5074678;28;20522;-60
2021/05/08 01:53:15;;;;;;;8.95;2.72;;;9.50;70.50;;;;;;5074454;28;20093;-59
2021/05/08 01:55:44;;;;;;;7.57;2.78;;;9.50;70.50;;;;;;5075382;28;20039;-60
2021/05/08 01:58:19;;;;;;;6.05;3.17;;;9.50;70.50;;;;;;5074772;28;20021;-59
2021/05/08 02:00:50;;;;;;;9.15;3.13;;;9.50;70.40;;;;;;5075888;28;20033;-59
2021/05/08 02:03:16;;;;;;;7.72;2.97;;;9.50;70.30;;;;;;5075126;28;20359;-59
2021/05/08 02:05:44;;;;;;;5.97;2.70;;;9.50;70.20;;;;;;5074509;28;20059;-59
2021/05/08 02:08:18;;;;;;;8.70;2.75;;;9.50;70.20;;;;;;5074496;28;20028;-60
2021/05/08 02:10:46;;;;;;;7.80;2.72;;;9.50;70.10;;;;;;5071585;28;20422;-59
2021/05/08 02:13:14;;;;;;;7.32;2.85;;;9.50;70.10;;;;;;5077513;28;20048;-60
2021/05/08 02:15:42;;;;;;;6.88;2.92;;;9.50;70.10;;;;;;5074442;28;20024;-59
2021/05/08 02:18:09;;;;;;;7.63;2.90;;;9.50;70.10;;;;;;5074691;28;20040;-59
2021/05/08 02:20:39;;;;;;;6.85;3.30;;;9.50;70.00;;;;;;5091005;28;20021;-59
2021/05/08 02:23:11;;;;;;;7.40;3.00;;;9.50;70.10;;;;;;5075615;28;20106;-59
2021/05/08 02:25:39;;;;;;;7.18;3.65;;;9.50;70.10;;;;;;5074589;28;20056;-59
2021/05/08 02:28:06;;;;;;;8.90;3.60;;;9.50;70.10;;;;;;5077701;28;20064;-59
2021/05/08 02:30:38;;;;;;;6.65;3.08;;;9.40;70.10;;;;;;5073414;28;20540;-59
2021/05/08 02:33:07;;;;;;;5.97;2.83;;;9.40;70.20;;;;;;5075325;28;20033;-59
2021/05/08 02:35:34;;;;;;;7.80;2.75;;;9.40;70.80;;;;;;5075417;28;20062;-60
2021/05/08 02:38:02;;;;;;;9.55;3.25;;;9.40;70.20;;;;;;5073097;28;20029;-59
2021/05/08 02:40:31;;;;;;;8.00;2.78;;;9.40;70.20;;;;;;5073914;28;20074;-59
2021/05/08 02:42:59;;;;;;;6.80;3.25;;;9.40;70.20;;;;;;5074874;28;20040;-60
2021/05/08 02:45:25;;;;;;;7.22;3.13;;;9.40;70.30;;;;;;5073072;28;20368;-60
2021/05/08 02:47:52;;;;;;;5.85;3.08;;;9.30;70.30;;;;;;5074868;28;20028;-59
2021/05/08 02:50:20;;;;;;;11.35;2.78;;;9.30;70.30;;;;;;5073697;28;20031;-59
2021/05/08 02:52:46;;;;;;;12.25;3.38;;;9.30;70.40;;;;;;5074061;28;20049;-60
2021/05/08 02:55:14;;;;;;;4.95;3.00;;;9.30;70.40;;;;;;5074686;28;20033;-60
2021/05/08 02:57:40;;;;;;;6.60;2.95;;;9.30;70.40;;;;;;5073604;28;20035;-60
2021/05/08 03:00:10;;;;;;;11.57;3.55;;;9.30;70.40;;;;;;5073011;28;20070;-59
2021/05/08 03:02:36;;;;;;;7.57;3.08;;;9.20;70.40;;;;;;5073576;28;20039;-59
2021/05/08 03:05:05;;;;;;;5.90;2.58;;;9.20;70.40;;;;;;5074446;28;20089;-60
2021/05/08 03:07:30;;;;;;;3.38;2.40;;;9.20;70.40;;;;;;5072748;28;20028;-59
2021/05/08 03:09:56;;;;;;;4.85;2.55;;;9.20;70.40;;;;;;5073300;28;20028;-59
2021/05/08 03:12:23;;;;;;;7.05;2.65;;;9.20;70.50;;;;;;5073313;28;20033;-59
2021/05/08 03:14:49;;;;;;;5.07;2.42;;;9.20;70.40;;;;;;5072564;28;20390;-59
2021/05/08 03:17:15;;;;;;;6.90;3.05;;;9.10;70.30;;;;;;5072920;28;20415;-59
2021/05/08 03:19:47;;;;;;;4.95;2.90;;;9.20;70.40;;;;;;5089471;28;20029;-59
2021/05/08 03:22:13;;;;;;;4.72;2.70;;;9.10;70.40;;;;;;5074395;28;20035;-59
2021/05/08 03:24:39;;;;;;;3.95;2.40;;;9.10;70.40;;;;;;5073126;28;20480;-59
2021/05/08 03:27:05;;;;;;;4.50;2.50;;;9.00;70.40;;;;;;5073339;28;20086;-59
2021/05/08 03:29:31;;;;;;;8.98;2.95;;;9.00;70.30;;;;;;5073026;28;20058;-59
2021/05/08 03:31:57;;;;;;;7.47;3.00;;;9.00;70.30;;;;;;5073022;28;20044;-59
2021/05/08 03:34:23;;;;;;;8.10;2.67;;;9.00;70.50;;;;;;5072075;28;20037;-59
2021/05/08 03:36:49;;;;;;;9.13;2.65;;;9.00;70.50;;;;;;5072796;28;20484;-59
2021/05/08 03:39:15;;;;;;;7.25;2.42;;;9.00;70.60;;;;;;5074022;28;20032;-60
2021/05/08 03:41:42;;;;;;;10.85;2.83;;;8.90;70.60;;;;;;5073289;28;20073;-59
2021/05/08 03:44:08;;;;;;;6.95;2.60;;;8.90;70.60;;;;;;5073714;28;20464;-59
2021/05/08 03:46:34;;;;;;;6.05;2.60;;;9.00;70.70;;;;;;5073877;28;20055;-59
2021/05/08 03:48:59;;;;;;;5.63;2.67;;;8.90;70.60;;;;;;5073184;28;20024;-60
2021/05/08 03:51:25;;;;;;;8.32;3.25;;;9.00;70.80;;;;;;5073487;28;20499;-59
2021/05/08 03:53:53;;;;;;;13.27;3.40;;;8.90;70.80;;;;;;5073553;28;20076;-60
2021/05/08 03:56:19;;;;;;;4.88;2.92;;;8.90;70.80;;;;;;5072742;28;20029;-60
2021/05/08 03:58:45;;;;;;;5.97;2.70;;;8.90;70.80;;;;;;5073870;28;20074;-59
2021/05/08 04:01:10;;;;;;;8.80;3.10;;;8.80;70.70;;;;;;5073425;28;20028;-59
2021/05/08 04:03:36;;;;;;;8.48;2.97;;;8.80;70.80;;;;;;5072946;28;20039;-59
2021/05/08 04:06:02;;;;;;;7.43;3.65;;;8.90;71.00;;;;;;5073653;28;20434;-59
2021/05/08 04:08:27;;;;;;;8.25;3.00;;;8.80;71.10;;;;;;5073168;28;20055;-59
2021/05/08 04:10:53;;;;;;;10.18;3.15;;;8.80;71.20;;;;;;5072857;28;20063;-59
2021/05/08 04:13:19;;;;;;;5.80;2.88;;;8.80;71.30;;;;;;5073348;28;20028;-59
2021/05/08 04:15:44;;;;;;;8.50;3.05;;;8.80;72.00;;;;;;5073331;28;20056;-59
2021/05/08 04:18:11;;;;;;;8.75;3.50;;;8.80;71.40;;;;;;5072349;28;20029;-59
2021/05/08 04:20:38;;;;;;;7.93;3.45;;;8.70;71.50;;;;;;5073543;28;20781;-59
2021/05/08 04:23:04;;;;;;;7.20;2.95;;;8.70;71.70;;;;;;5069967;28;20058;-59
2021/05/08 04:25:30;;;;;;;7.18;3.25;;;8.70;71.80;;;;;;5067987;28;20056;-59
2021/05/08 04:27:56;;;;;;;6.00;2.92;;;8.70;71.90;;;;;;5072708;28;20025;-59
2021/05/08 04:30:22;;;;;;;6.38;3.17;;;8.70;72.00;;;;;;5072001;28;20025;-60
2021/05/08 04:32:48;;;;;;;11.82;3.40;;;8.70;72.00;;;;;;5072503;28;20051;-59
2021/05/08 04:35:14;;;;;;;10.32;3.28;;;8.70;72.00;;;;;;5072378;28;20024;-59
2021/05/08 04:37:39;;;;;;;6.43;3.05;;;8.70;71.90;;;;;;5071580;28;20028;-59
2021/05/08 04:40:06;;;;;;;8.98;3.63;;;8.70;71.90;;;;;;5072346;28;20053;-59
2021/05/08 04:42:32;;;;;;;6.43;3.60;;;8.70;72.10;;;;;;5059900;28;20017;-59
2021/05/08 04:44:57;;;;;;;10.65;4.72;;;8.70;72.30;;;;;;5071774;28;20527;-59
2021/05/08 04:47:23;;;;;;;9.60;3.35;;;8.70;72.40;;;;;;5067725;28;20036;-59
2021/05/08 04:49:51;;;;;;;8.82;3.88;;;8.70;72.50;;;;;;5072683;28;20027;-60
2021/05/08 04:52:17;;;;;;;8.07;3.75;;;8.70;72.60;;;;;;5071746;28;20048;-59
2021/05/08 04:54:43;;;;;;;5.68;2.75;;;8.60;72.70;;;;;;5072407;28;20032;-59
2021/05/08 04:57:09;;;;;;;11.52;3.15;;;8.70;72.70;;;;;;5072764;28;20032;-60
2021/05/08 04:59:34;;;;;;;10.65;4.60;;;8.60;72.60;;;;;;5071922;28;20033;-59
2021/05/08 05:02:01;;;;;;;10.55;3.35;;;8.70;72.80;;;;;;5072514;28;20377;-59
2021/05/08 05:04:27;;;;;;;6.97;3.60;;;8.70;73.10;;;;;;5072679;28;20039;-60
2021/05/08 05:06:53;;;;;;;7.50;4.32;;;8.70;73.30;;;;;;5065722;28;20487;-60
2021/05/08 05:09:18;;;;;;;9.40;3.90;;;8.60;73.50;;;;;;5072645;28;20024;-60
2021/05/08 05:11:44;;;;;;;8.32;3.55;;;8.70;73.90;;;;;;5072600;28;20028;-59
2021/05/08 05:14:09;;;;;;;11.68;4.45;;;8.60;74.10;;;;;;5071779;28;20039;-59
2021/05/08 05:16:35;;;;;;;9.65;3.75;;;8.60;74.40;;;;;;5072358;28;20201;-59
2021/05/08 05:19:06;;;;;;;7.30;3.80;;;8.60;74.80;;;;;;5072357;28;20064;-60
2021/05/08 05:21:31;;;;;;;5.93;3.00;;;8.60;75.20;;;;;;5071885;28;20024;-60
2021/05/08 05:23:57;;;;;;;7.88;2.92;;;8.60;74.80;;;;;;5074594;28;20050;-59
2021/05/08 05:26:25;;;;;;;3.45;2.40;;;8.60;74.10;;;;;;5076081;28;20052;-59
2021/05/08 05:28:51;;;;;;;7.47;2.97;;;8.60;74.20;;;;;;5076320;28;20039;-59
2021/05/08 05:31:18;;;;;;;7.22;3.63;;;8.60;74.00;;;;;;5076501;28;20107;-59
2021/05/08 05:33:43;;;;;;;5.78;3.03;;;8.60;74.20;;;;;;5075668;28;20082;-59
2021/05/08 05:36:09;;;;;;;8.85;3.97;;;8.70;73.90;;;;;;5076030;28;20029;-60
2021/05/08 05:38:35;;;;;;;7.72;3.50;;;8.70;73.90;;;;;;5076622;28;20028;-59
2021/05/08 05:41:00;;;;;;;7.57;3.88;;;8.70;73.60;;;;;;5075788;28;20390;-60
2021/05/08 05:43:26;;;;;;;7.97;3.40;;;8.70;73.50;;;;;;5076419;28;20545;-60
2021/05/08 05:45:52;;;;;;;10.32;4.47;;;8.80;73.30;;;;;;5071103;28;20028;-59
2021/05/08 05:48:18;;;;;;;8.48;3.70;;;8.80;73.30;;;;;;5070942;28;20040;-59
2021/05/08 05:50:44;;;;;;;8.05;4.38;;;8.90;73.20;;;;;;5074285;28;20024;-60
2021/05/08 05:53:09;;;;;;;7.50;4.13;;;8.90;74.00;;;;;;5074599;28;20040;-60
2021/05/08 05:55:35;;;;;;;7.68;4.47;;;8.90;73.00;;;;;;5073744;28;20089;-59
2021/05/08 05:58:02;;;;;;;6.97;4.28;;;9.00;73.60;;;;;;5074457;28;20028;-59
2021/05/08 06:00:27;;;;;;;15.02;4.88;;;9.00;73.80;;;;;;5074576;28;20029;-60
2021/05/08 06:02:53;;;;;;;8.40;4.53;;;9.00;74.30;;;;;;5073813;28;20487;-60
2021/05/08 06:05:19;;;;;;;8.00;4.32;;;9.10;74.70;;;;;;5075647;28;20112;-59
2021/05/08 06:07:45;;;;;;;8.20;4.13;;;9.10;74.50;;;;;;5075609;28;20463;-59
2021/05/08 06:10:12;;;;;;;5.00;2.95;;;9.10;74.50;;;;;;5074720;28;20039;-59
2021/05/08 06:12:38;;;;;;;8.02;4.10;;;9.10;73.50;;;;;;5075604;28;20020;-59
2021/05/08 06:15:05;;;;;;;10.23;3.95;;;9.10;73.50;;;;;;5075468;28;20101;-59
2021/05/08 06:17:31;;;;;;;7.63;3.67;;;9.20;73.10;;;;;;5074690;28;20086;-59
2021/05/08 06:19:56;;;;;;;9.45;4.63;;;9.20;72.70;;;;;;5075476;28;20029;-59
2021/05/08 06:22:22;;;;;;;5.07;1.13;;;9.20;72.40;;;;;;5075591;28;20494;-59
2021/05/08 06:24:48;;;;;;;11.48;4.40;;;9.20;72.30;;;;;;5074859;28;20036;-60
2021/05/08 06:27:13;;;;;;;9.38;4.82;;;9.30;72.60;;;;;;5075327;28;20025;-59
2021/05/08 06:29:39;;;;;;;7.65;3.97;;;9.30;72.90;;;;;;5074708;28;20078;-60
2021/05/08 06:32:05;;;;;;;9.15;4.50;;;9.30;72.80;;;;;;5075271;28;20025;-59
2021/05/08 06:34:32;;;;;;;7.78;4.10;;;9.40;72.70;;;;;;5073818;28;20037;-60
2021/05/08 06:37:02;;;;;;;12.15;5.47;;;9.40;72.70;;;;;;5074604;28;20026;-59
2021/05/08 06:39:29;;;;;;;8.25;4.97;;;9.50;73.60;;;;;;5074596;28;20107;-59
2021/05/08 06:41:55;;;;;;;9.57;4.65;;;9.50;73.90;;;;;;5073853;28;20028;-59
2021/05/08 06:44:24;;;;;;;6.50;3.67;;;9.50;73.30;;;;;;5073343;28;20070;-59
2021/05/08 06:46:50;;;;;;;8.82;4.90;;;9.50;73.10;;;;;;5074358;28;20025;-59
2021/05/08 06:49:15;;;;;;;11.65;3.80;;;9.60;72.90;;;;;;5074227;28;20024;-60
2021/05/08 06:51:41;;;;;;;9.48;4.72;;;9.60;72.80;;;;;;5071268;28;20048;-59
2021/05/08 06:54:07;;;;;;;13.25;5.07;;;9.60;72.70;;;;;;5066114;28;20421;-59
2021/05/08 06:56:32;;;;;;;11.57;2.83;;;9.70;72.40;;;;;;5073263;28;20028;-57
2021/05/08 06:58:58;;;;;;;11.80;4.68;;;9.70;71.90;;;;;;5068601;28;20411;-60
2021/05/08 07:01:24;;;;;;;10.68;5.70;;;9.70;71.70;;;;;;5080215;28;20154;-59
2021/05/08 07:03:50;;;;;;;9.00;5.50;;;9.80;72.10;;;;;;5073130;28;20032;-59
2021/05/08 07:06:16;;;;;;;10.95;5.78;;;9.80;72.90;;;;;;5072358;28;20046;-59
2021/05/08 07:08:41;;;;;;;9.45;3.90;;;9.80;73.40;;;;;;5071267;28;20159;-59
2021/05/08 07:11:07;;;;;;;15.30;6.50;;;9.80;73.00;;;;;;5067949;28;20035;-59
2021/05/08 07:13:33;;;;;;;13.02;8.05;;;9.90;73.20;;;;;;5072889;28;20407;-59
2021/05/08 07:15:58;;;;;;;11.40;6.18;;;9.90;73.80;;;;;;5073677;28;20467;-63
2021/05/08 07:18:24;;;;;;;8.60;5.82;;;10.00;73.90;;;;;;5070820;28;20028;-62
2021/05/08 07:20:51;;;;;;;11.10;4.97;;;10.00;74.10;;;;;;5072535;28;20027;-60
2021/05/08 07:23:17;;;;;;;8.00;5.20;;;10.00;73.80;;;;;;5061211;28;20029;-60
2021/05/08 07:25:43;;;;;;;7.53;2.85;;;10.10;73.20;;;;;;5075178;28;20029;-60
2021/05/08 07:28:11;;;;;;;5.72;3.40;;;10.10;73.20;;;;;;5067935;28;20029;-56
2021/05/08 07:30:38;;;;;;;10.15;5.60;;;10.10;72.40;;;;;;5066332;28;20040;-60
2021/05/08 07:33:04;;;;;;;15.07;7.65;;;10.10;72.10;;;;;;5066377;28;20029;-60
2021/05/08 07:35:30;;;;;;;14.90;6.93;;;10.10;72.30;;;;;;5073204;28;20020;-59
2021/05/08 07:37:55;;;;;;;7.50;2.80;;;10.20;72.50;;;;;;5070611;28;20464;-59
2021/05/08 07:40:21;;;;;;;8.90;4.18;;;10.20;72.30;;;;;;5072631;28;20082;-59
2021/05/08 07:42:47;;;;;;;8.85;4.35;;;10.30;71.90;;;;;;5071248;28;20055;-60
2021/05/08 07:45:14;;;;;;;10.10;6.07;;;10.30;71.90;;;;;;5069993;28;20063;-60
2021/05/08 07:47:40;;;;;;;11.70;5.85;;;10.40;72.10;;;;;;5072353;28;20028;-60
2021/05/08 07:50:07;;;;;;;9.02;5.18;;;10.40;72.50;;;;;;5071701;28;20037;-59
2021/05/08 07:52:33;;;;;;;11.35;6.65;;;10.50;72.20;;;;;;5072595;28;20072;-60
2021/05/08 07:54:59;;;;;;;3.33;2.13;;;10.50;72.40;;;;;;5068830;28;20052;-60
2021/05/08 07:57:25;;;;;;;10.32;5.57;;;10.60;72.00;;;;;;5068827;28;20013;-60
2021/05/08 07:59:50;;;;;;;10.73;4.97;;;10.70;71.90;;;;;;5060574;28;20392;-60
2021/05/08 08:02:16;;;;;;;10.48;6.43;;;10.70;72.10;;;;;;5068338;28;20025;-60
2021/05/08 08:04:42;;;;;;;11.57;5.82;;;10.80;72.30;;;;;;5068498;28;20078;-60
2021/05/08 08:07:07;;;;;;;9.32;4.25;;;10.80;71.90;;;;;;5073623;28;20021;-59
2021/05/08 08:09:33;;;;;;;7.63;5.03;;;10.90;72.00;;;;;;5071792;28;20039;-60
2021/05/08 08:11:59;;;;;;;11.73;6.13;;;10.90;72.00;;;;;;5073311;28;20043;-60
2021/05/08 08:14:24;;;;;;;11.85;4.80;;;11.00;71.80;;;;;;5072382;28;20090;-60
2021/05/08 08:16:50;;;;;;;7.13;3.72;;;11.10;71.70;;;;;;5071716;28;20034;-60
2021/05/08 08:19:16;;;;;;;9.00;5.28;;;11.10;71.70;;;;;;5071477;28;20028;-60
2021/05/08 08:21:41;;;;;;;11.98;5.97;;;11.20;71.70;;;;;;5064511;28;20463;-60
2021/05/08 08:24:08;;;;;;;10.18;5.82;;;11.20;71.80;;;;;;5071900;28;20380;-60
2021/05/08 08:26:35;;;;;;;8.90;4.15;;;11.20;71.70;;;;;;5055896;28;20108;-59
2021/05/08 08:29:02;;;;;;;10.65;4.93;;;11.30;71.60;;;;;;5068709;28;20055;-61
2021/05/08 08:31:28;;;;;;;9.73;5.28;;;11.30;71.50;;;;;;5072153;28;20444;-61
2021/05/08 08:33:53;;;;;;;4.97;3.28;;;11.30;71.60;;;;;;5061235;28;20111;-60
2021/05/08 08:36:19;;;;;;;10.10;4.40;;;11.30;71.40;;;;;;5071397;28;20361;-60
2021/05/08 08:38:45;;;;;;;9.60;5.13;;;11.40;71.50;;;;;;5072891;28;20028;-62
2021/05/08 08:41:12;;;;;;;6.55;3.58;;;11.40;71.30;;;;;;5065413;28;20496;-60
2021/05/08 08:43:38;;;;;;;8.43;5.50;;;11.40;71.40;;;;;;5075855;28;20039;-60
2021/05/08 08:46:05;;;;;;;7.57;5.18;;;11.50;71.20;;;;;;5072107;28;20024;-60
2021/05/08 08:48:31;;;;;;;8.68;3.35;;;11.60;71.30;;;;;;5067035;28;20120;-60
2021/05/08 08:50:57;;;;;;;6.68;3.97;;;11.70;71.10;;;;;;5071771;28;20024;-60
2021/05/08 08:53:23;;;;;;;7.20;4.18;;;11.70;71.00;;;;;;5072621;28;20399;-60
2021/05/08 08:55:55;;;;;;;6.40;4.10;;;11.80;70.90;;;;;;5072486;28;20052;-60
2021/05/08 08:58:33;;;;;;;10.20;4.55;;;11.80;70.80;;;;;;5070655;28;20024;-60
2021/05/08 09:01:00;;;;;;;11.23;4.10;;;11.80;70.60;;;;;;5071222;28;20040;-60
2021/05/08 09:03:26;;;;;;;11.02;5.10;;;11.90;70.70;;;;;;5071738;28;20040;-60
2021/05/08 09:05:56;;;;;;;5.60;3.30;;;12.00;70.50;;;;;;5071613;28;20028;-60
2021/05/08 09:08:22;;;;;;;6.53;3.13;;;12.00;69.90;;;;;;5071094;28;20112;-60
2021/05/08 09:10:49;;;;;;;7.80;4.68;;;12.00;69.90;;;;;;5072260;28;20162;-61
2021/05/08 09:13:22;;;;;;;14.73;5.63;;;12.10;69.30;;;;;;5071495;28;20036;-60
2021/05/08 09:15:51;;;;;;;4.57;2.70;;;12.20;69.50;;;;;;5072313;28;20032;-60
2021/05/08 09:18:35;;;;;;;11.93;4.72;;;12.30;69.30;;;;;;5071679;28;20040;-60
2021/05/08 09:21:03;;;;;;;7.10;4.00;;;12.30;68.20;;;;;;5058682;28;20029;-60
2021/05/08 09:23:37;;;;;;;7.85;4.38;;;12.40;68.50;;;;;;5072624;28;20032;-60
2021/05/08 09:26:14;;;;;;;9.05;3.47;;;12.50;68.20;;;;;;5070557;28;20543;-60
2021/05/08 09:28:50;;;;;;;6.03;2.67;;;12.50;68.60;;;;;;5071813;28;20035;-59
2021/05/08 09:31:16;;;;;;;8.23;4.32;;;12.50;68.80;;;;;;5072168;28;20069;-59
2021/05/08 09:33:50;;;;;;;7.70;3.78;;;12.60;68.50;;;;;;5071256;28;20036;-59
2021/05/08 09:36:16;;;;;;;5.18;3.03;;;12.60;68.30;;;;;;5070460;28;20016;-59
2021/05/08 09:38:43;;;;;;;8.77;4.13;;;12.70;69.00;;;;;;5064241;28;20047;-59
2021/05/08 09:41:14;;;;;;;9.02;4.18;;;12.80;67.40;;;;;;5057869;28;20071;-59
2021/05/08 09:43:41;;;;;;;7.72;3.72;;;12.80;67.20;;;;;;5072060;28;20471;-59
2021/05/08 09:46:08;;;;;;;10.18;4.25;;;12.80;66.90;;;;;;5071876;28;20028;-60
2021/05/08 09:48:33;;;;;;;8.07;3.97;;;12.90;67.30;;;;;;5071445;28;20099;-59
2021/05/08 09:51:25;;;;;;;7.13;3.60;;;13.00;67.00;;;;;;5072049;28;20036;-59
2021/05/08 09:54:13;;;;;;;6.82;3.45;;;13.00;67.30;;;;;;5071453;28;20031;-60
2021/05/08 09:56:44;;;;;;;11.77;5.25;;;13.10;66.40;;;;;;5071741;28;20081;-59
2021/05/08 09:59:34;;;;;;;7.95;3.92;;;13.10;65.50;;;;;;5071907;28;20492;-59
2021/05/08 10:02:03;;;;;;;5.97;3.58;;;13.20;64.60;;;;;;5070618;28;20115;-60
2021/05/08 10:04:49;;;;;;;12.57;3.95;;;13.20;64.90;;;;;;5071903;28;20624;-59
2021/05/08 10:07:22;;;;;;;9.32;4.13;;;13.30;64.50;;;;;;5072266;28;20033;-59
2021/05/08 10:09:49;;;;;;;8.77;4.60;;;13.30;64.10;;;;;;5073076;28;20082;-59
2021/05/08 10:12:20;;;;;;;10.05;3.58;;;13.40;64.40;;;;;;5075420;28;20032;-65
2021/05/08 10:14:48;;;;;;;3.78;2.15;;;13.40;65.60;;;;;;5074725;28;20045;-60
2021/05/08 10:17:37;;;;;;;6.30;2.78;;;13.40;66.10;;;;;;5075229;28;20020;-60
2021/05/08 10:20:06;;;;;;;12.95;4.57;;;13.50;65.90;;;;;;5075497;28;20123;-59
2021/05/08 10:22:40;;;;;;;7.15;3.65;;;13.60;65.10;;;;;;5073974;28;20028;-59
2021/05/08 10:25:06;;;;;;;12.02;4.00;;;13.60;64.60;;;;;;5075466;28;20119;-61
2021/05/08 10:27:32;;;;;;;7.13;3.38;;;13.70;64.50;;;;;;5075345;28;20067;-62
2021/05/08 10:29:59;;;;;;;10.82;4.05;;;13.80;65.30;;;;;;5074431;28;20058;-61
2021/05/08 10:32:25;;;;;;;9.10;4.00;;;13.80;65.10;;;;;;5075437;28;20040;-61
2021/05/08 10:34:59;;;;;;;7.65;3.78;;;13.80;64.30;;;;;;5075263;28;20044;-61
2021/05/08 10:37:25;;;;;;;11.07;4.63;;;13.90;63.50;;;;;;5074497;28;20497;-61
2021/05/08 10:39:58;;;;;;;3.30;2.30;;;14.00;63.90;;;;;;5075020;28;20025;-61
2021/05/08 10:42:38;;;;;;;7.57;4.25;;;14.00;64.40;;;;;;5074954;28;20057;-60
2021/05/08 10:45:10;;;;;;;8.68;4.47;;;14.10;65.20;;;;;;5074218;28;20048;-59
2021/05/08 10:48:02;;;;;;;8.40;4.45;;;14.10;65.30;;;;;;5075120;28;20025;-61
2021/05/08 10:50:36;;;;;;;6.00;3.45;;;14.10;65.30;;;;;;5065821;28;20510;-59
2021/05/08 10:53:03;;;;;;;7.65;4.38;;;14.20;65.50;;;;;;5070508;28;20443;-59
2021/05/08 10:55:30;;;;;;;13.23;4.97;;;14.20;65.00;;;;;;5074622;28;20051;-59
2021/05/08 10:58:18;;;;;;;4.38;2.17;;;14.30;65.00;;;;;;5073743;28;20383;-59
2021/05/08 11:00:59;;;;;;;10.85;4.05;;;14.30;66.30;;;;;;5065812;28;20112;-59
2021/05/08 11:03:48;;;;;;;13.10;4.32;;;14.40;65.40;;;;;;5072946;28;20024;-60
2021/05/08 11:06:15;;;;;;;8.95;4.03;;;14.40;66.40;;;;;;5066370;28;20040;-64
2021/05/08 11:08:48;;;;;;;9.82;4.57;;;14.50;66.70;;;;;;5073143;28;20024;-59
2021/05/08 11:11:22;;;;;;;10.27;4.55;;;14.50;67.00;;;;;;5072625;28;20028;-62
2021/05/08 11:13:59;;;;;;;19.13;6.05;;;14.50;67.30;;;;;;5073023;28;20041;-60
2021/05/08 11:16:32;;;;;;;7.93;4.13;;;14.60;66.10;;;;;;5072945;28;20028;-60
2021/05/08 11:19:02;;;;;;;13.32;6.13;;;14.70;66.60;;;;;;5069916;28;20123;-59
2021/05/08 11:21:30;;;;;;;8.70;4.47;;;14.70;64.10;;;;;;5072067;28;20058;-59
2021/05/08 11:24:05;;;;;;;5.90;3.25;;;14.70;65.80;;;;;;5072104;28;20107;-59
2021/05/08 11:26:36;;;;;;;6.55;2.88;;;14.80;66.90;;;;;;5070132;28;20020;-59
2021/05/08 11:29:02;;;;;;;10.02;4.40;;;14.80;67.30;;;;;;5072253;28;20028;-60
2021/05/08 11:31:39;;;;;;;9.10;3.90;;;14.90;65.90;;;;;;5072776;28;20380;-59
2021/05/08 11:34:22;;;;;;;16.33;6.28;;;14.90;67.40;;;;;;5071788;28;20052;-59
2021/05/08 11:37:08;;;;;;;11.35;4.40;;;15.00;65.50;;;;;;5072785;28;20032;-59
2021/05/08 11:39:39;;;;;;;13.40;5.65;;;15.00;65.90;;;;;;5069275;28;20033;-59
2021/05/08 11:42:23;;;;;;;12.77;4.18;;;15.10;66.00;;;;;;5072365;28;20044;-59
2021/05/08 11:45:01;;;;;;;13.63;7.05;;;15.10;66.60;;;;;;5071680;28;20488;-59
2021/05/08 11:50:05;;;;;;;16.98;7.43;;;15.20;66.30;;;;;;5068936;28;20033;-59
2021/05/08 11:52:37;;;;;;;10.90;4.07;;;15.30;64.60;;;;;;5071888;28;20036;-58
2021/05/08 11:55:05;;;;;;;10.10;5.43;;;15.30;66.80;;;;;;5071262;28;20045;-60
2021/05/08 11:57:31;;;;;;;10.70;5.05;;;15.40;66.70;;;;;;5073330;28;20056;-59
2021/05/08 11:59:57;;;;;;;16.60;6.97;;;15.40;67.00;;;;;;5073202;28;20034;-59
2021/05/08 12:02:24;;;;;;;10.82;5.65;;;15.40;67.10;;;;;;5072973;28;20032;-60
2021/05/08 12:04:52;;;;;;;17.10;7.00;;;15.50;66.70;;;;;;5073416;28;20064;-59
2021/05/08 12:07:26;;;;;;;8.07;4.85;;;15.50;66.60;;;;;;5072634;28;20054;-58
2021/05/08 12:10:10;;;;;;;5.88;2.50;;;15.50;67.10;;;;;;5073090;28;20039;-59
2021/05/08 12:12:49;;;;;;;6.55;3.33;;;15.50;68.30;;;;;;5073200;28;20036;-59
2021/05/08 12:15:23;;;;;;;11.23;3.03;;;15.60;68.80;;;;;;5072698;28;20036;-58
2021/05/08 12:17:52;;;;;;;4.80;2.90;;;15.50;68.30;;;;;;5073172;28;20031;-59
2021/05/08 12:20:19;;;;;;;6.03;3.88;;;15.50;68.80;;;;;;5073106;28;20042;-59
2021/05/08 12:22:46;;;;;;;3.55;1.98;;;15.40;68.80;;;;;;5072837;28;20032;-59
2021/05/08 12:25:21;;;;;;;3.00;2.15;;;15.40;68.60;;;;;;5070200;28;20032;-59
2021/05/08 12:27:47;;;;;;;4.72;2.70;;;15.30;68.70;;;;;;5071564;28;20032;-59
2021/05/08 12:30:14;;;;;;;5.38;1.95;;;15.30;67.50;;;;;;5071770;28;20107;-60
2021/05/08 12:32:52;;;;;;;4.93;2.47;;;15.20;66.90;;;;;;5072912;28;20044;-58
2021/05/08 12:35:20;;;;;;;7.75;2.55;;;15.20;67.60;;;;;;5071168;28;20032;-58
2021/05/08 12:37:47;;;;;;;3.00;2.13;;;15.10;67.50;;;;;;5072715;28;20028;-62
2021/05/08 12:40:13;;;;;;;4.75;2.05;;;15.10;68.30;;;;;;5069630;28;20522;-58
2021/05/08 12:42:42;;;;;;;2.55;1.23;;;15.00;68.20;;;;;;5067221;28;20027;-59
2021/05/08 12:45:09;;;;;;;6.57;3.30;;;15.10;68.70;;;;;;5065842;28;20036;-59
2021/05/08 12:47:46;;;;;;;4.90;2.63;;;15.10;68.40;;;;;;5072414;28;20424;-58
2021/05/08 12:50:24;;;;;;;6.80;3.85;;;15.20;69.00;;;;;;5069230;28;20031;-58
2021/05/08 12:53:07;;;;;;;4.68;2.53;;;15.30;68.00;;;;;;5070070;28;20044;-59
2021/05/08 12:55:38;;;;;;;9.82;3.70;;;15.30;68.50;;;;;;5066650;28;20045;-58
2021/05/08 12:58:15;;;;;;;7.85;3.47;;;15.30;68.10;;;;;;5071277;28;20044;-59